createdAt,value
2022-09-11T00:01:33.402Z,97675.00
2022-09-11T00:04:01.996Z,97666.00
2022-09-11T00:06:30.686Z,97670.00
2022-09-11T00:09:05.409Z,97671.00
2022-09-11T00:11:40.488Z,97661.00
2022-09-11T00:14:10.483Z,97666.00
2022-09-11T00:16:41.403Z,97670.00
2022-09-11T00:19:16.229Z,97663.00
2022-09-11T00:21:43.411Z,97673.00
2022-09-11T00:24:10.802Z,97668.00
2022-09-11T00:26:39.145Z,97663.00
2022-09-11T00:29:06.418Z,97665.00
2022-09-11T00:31:33.753Z,97660.00
2022-09-11T00:34:01.073Z,97664.00
2022-09-11T00:36:35.894Z,97670.00
2022-09-11T00:39:03.154Z,97662.00
2022-09-11T00:41:38.278Z,97659.00
2022-09-11T00:44:29.195Z,97661.00
2022-09-11T00:47:05.900Z,97661.00
2022-09-11T00:49:42.050Z,97657.00
2022-09-11T00:52:28.142Z,97666.00
2022-09-11T00:55:00.027Z,97661.00
2022-09-11T00:57:29.685Z,97666.00
2022-09-11T00:59:59.742Z,97663.00
2022-09-11T01:02:30.011Z,97665.00
2022-09-11T01:05:00.251Z,97661.00
2022-09-11T01:07:29.462Z,97667.00
2022-09-11T01:09:57.548Z,97647.00
2022-09-11T01:12:44.464Z,97652.00
2022-09-11T01:15:48.138Z,97646.00
2022-09-11T01:18:35.974Z,97656.00
2022-09-11T01:21:52.621Z,97658.00
2022-09-11T01:24:45.972Z,97648.00
2022-09-11T01:27:52.655Z,97655.00
2022-09-11T01:30:33.152Z,97651.00
2022-09-11T01:33:11.495Z,97656.00
2022-09-11T01:36:18.413Z,97649.00
2022-09-11T01:38:48.203Z,97648.00
2022-09-11T01:41:55.742Z,97657.00
2022-09-11T01:44:54.601Z,97651.00
2022-09-11T01:47:23.292Z,97645.00
2022-09-11T01:50:05.206Z,97644.00
2022-09-11T01:52:54.838Z,97649.00
2022-09-11T01:55:34.954Z,97645.00
2022-09-11T01:58:27.154Z,97642.00
2022-09-11T02:01:02.397Z,97644.00
2022-09-11T02:03:38.732Z,97637.00
2022-09-11T02:06:13.433Z,97638.00
2022-09-11T02:08:50.697Z,97632.00
2022-09-11T02:11:20.161Z,97637.00
2022-09-11T02:14:10.583Z,97622.00
2022-09-11T02:16:49.671Z,97631.00
2022-09-11T02:19:20.677Z,97631.00
2022-09-11T02:21:48.952Z,97618.00
2022-09-11T02:24:16.994Z,97626.00
2022-09-11T02:26:50.460Z,97627.00
2022-09-11T02:29:17.617Z,97619.00
2022-09-11T02:31:45.993Z,97620.00
2022-09-11T02:37:35.188Z,97632.00
2022-09-11T02:40:41.774Z,97629.00
2022-09-11T02:43:49.903Z,97631.00
2022-09-11T02:47:14.302Z,97633.00
2022-09-11T02:50:18.486Z,97623.00
2022-09-11T02:53:51.070Z,97626.00
2022-09-11T02:57:10.241Z,97628.00
2022-09-11T02:59:44.209Z,97628.00
2022-09-11T03:02:15.371Z,97622.00
2022-09-11T03:04:42.956Z,97622.00
2022-09-11T03:07:10.221Z,97628.00
2022-09-11T03:09:37.742Z,97627.00
2022-09-11T03:12:05.674Z,97623.00
2022-09-11T03:14:32.774Z,97625.00
2022-09-11T03:16:59.861Z,97627.00
2022-09-11T03:19:27.262Z,97623.00
2022-09-11T03:21:54.415Z,97624.00
2022-09-11T03:24:21.570Z,97621.00
2022-09-11T03:26:48.667Z,97620.00
2022-09-11T03:29:15.825Z,97622.00
2022-09-11T03:31:42.882Z,97626.00
2022-09-11T03:34:10.584Z,97636.00
2022-09-11T03:36:37.757Z,97622.00
2022-09-11T03:39:05.485Z,97622.00
2022-09-11T03:41:32.828Z,97622.00
2022-09-11T03:44:00.150Z,97623.00
2022-09-11T03:46:27.966Z,97628.00
2022-09-11T03:48:55.402Z,97617.00
2022-09-11T03:51:22.563Z,97610.00
2022-09-11T03:53:49.932Z,97615.00
2022-09-11T03:56:17.014Z,97619.00
2022-09-11T03:58:44.399Z,97620.00
2022-09-11T04:01:14.553Z,97622.00
2022-09-11T04:03:43.017Z,97614.00
2022-09-11T04:06:11.444Z,97626.00
2022-09-11T04:08:41.329Z,97622.00
2022-09-11T04:11:11.698Z,97624.00
2022-09-11T04:13:42.303Z,97618.00
2022-09-11T04:16:14.691Z,97622.00
2022-09-11T04:18:43.723Z,97627.00
2022-09-11T04:21:14.905Z,97618.00
2022-09-11T04:23:43.126Z,97615.00
2022-09-11T04:26:22.900Z,97624.00
2022-09-11T04:28:50.618Z,97614.00
2022-09-11T04:31:19.791Z,97615.00
2022-09-11T04:33:48.148Z,97623.00
2022-09-11T04:36:18.717Z,97625.00
2022-09-11T04:38:47.047Z,97619.00
2022-09-11T04:41:16.694Z,97618.00
2022-09-11T04:43:44.028Z,97622.00
2022-09-11T04:46:17.268Z,97621.00
2022-09-11T04:48:47.047Z,97611.00
2022-09-11T04:51:24.236Z,97627.00
2022-09-11T04:53:55.102Z,97627.00
2022-09-11T04:56:22.154Z,97627.00
2022-09-11T04:59:16.129Z,97628.00
2022-09-11T05:01:44.331Z,97623.00
2022-09-11T05:04:13.144Z,97626.00
2022-09-11T05:06:40.877Z,97626.00
2022-09-11T05:09:10.252Z,97627.00
2022-09-11T05:11:41.140Z,97624.00
2022-09-11T05:14:09.193Z,97621.00
2022-09-11T05:16:37.236Z,97618.00
2022-09-11T05:19:05.155Z,97621.00
2022-09-11T05:21:33.511Z,97619.00
2022-09-11T05:24:02.126Z,97612.00
2022-09-11T05:26:33.185Z,97615.00
2022-09-11T05:29:09.601Z,97621.00
2022-09-11T05:31:37.369Z,97622.00
2022-09-11T05:34:05.264Z,97625.00
2022-09-11T05:36:33.622Z,97621.00
2022-09-11T05:39:00.838Z,97622.00
2022-09-11T05:41:28.288Z,97625.00
2022-09-11T05:43:55.702Z,97629.00
2022-09-11T05:46:22.726Z,97630.00
2022-09-11T05:48:49.915Z,97625.00
2022-09-11T05:51:21.407Z,97630.00
2022-09-11T05:53:53.866Z,97638.00
2022-09-11T05:56:24.421Z,97635.00
2022-09-11T05:58:51.878Z,97634.00
2022-09-11T06:01:22.344Z,97627.00
2022-09-11T06:03:50.163Z,97634.00
2022-09-11T06:06:20.432Z,97636.00
2022-09-11T06:08:48.773Z,97633.00
2022-09-11T06:11:18.490Z,97633.00
2022-09-11T06:13:47.633Z,97641.00
2022-09-11T06:16:25.311Z,97644.00
2022-09-11T06:18:54.423Z,97642.00
2022-09-11T06:21:24.373Z,97646.00
2022-09-11T06:23:53.503Z,97633.00
2022-09-11T06:26:24.069Z,97639.00
2022-09-11T06:28:51.961Z,97637.00
2022-09-11T06:31:22.495Z,97635.00
2022-09-11T06:33:51.119Z,97639.00
2022-09-11T06:36:26.731Z,97649.00
2022-09-11T06:38:56.960Z,97645.00
2022-09-11T06:41:25.708Z,97647.00
2022-09-11T06:43:53.630Z,97648.00
2022-09-11T06:46:23.656Z,97649.00
2022-09-11T06:48:52.086Z,97646.00
2022-09-11T06:51:21.352Z,97637.00
2022-09-11T06:53:49.310Z,97639.00
2022-09-11T06:56:18.706Z,97639.00
2022-09-11T06:58:46.679Z,97633.00
2022-09-11T07:01:17.482Z,97636.00
2022-09-11T07:03:47.213Z,97634.00
2022-09-11T07:06:17.515Z,97639.00
2022-09-11T07:08:45.342Z,97636.00
2022-09-11T07:11:12.947Z,97646.00
2022-09-11T07:13:40.774Z,97642.00
2022-09-11T07:16:10.860Z,97634.00
2022-09-11T07:18:48.487Z,97646.00
2022-09-11T07:21:21.362Z,97639.00
2022-09-11T07:23:54.531Z,97639.00
2022-09-11T07:26:24.261Z,97644.00
2022-09-11T07:28:52.362Z,97647.00
2022-09-11T07:31:25.711Z,97645.00
2022-09-11T07:33:53.351Z,97646.00
2022-09-11T07:36:27.186Z,97644.00
2022-09-11T07:38:55.675Z,97648.00
2022-09-11T07:41:24.380Z,97651.00
2022-09-11T07:43:57.747Z,97646.00
2022-09-11T07:46:26.808Z,97655.00
2022-09-11T07:48:55.737Z,97645.00
2022-09-11T07:51:23.288Z,97656.00
2022-09-11T07:53:54.426Z,97653.00
2022-09-11T07:56:24.370Z,97659.00
2022-09-11T07:58:55.004Z,97660.00
2022-09-11T08:01:26.370Z,97659.00
2022-09-11T08:04:07.045Z,97667.00
2022-09-11T08:06:37.740Z,97669.00
2022-09-11T08:09:10.803Z,97669.00
2022-09-11T08:11:43.056Z,97671.00
2022-09-11T08:14:13.872Z,97663.00
2022-09-11T08:16:42.102Z,97673.00
2022-09-11T08:19:16.918Z,97673.00
2022-09-11T08:21:44.454Z,97672.00
2022-09-11T08:24:20.332Z,97671.00
2022-09-11T08:26:49.225Z,97672.00
2022-09-11T08:29:18.360Z,97680.00
2022-09-11T08:31:45.613Z,97689.00
2022-09-11T08:34:13.203Z,97691.00
2022-09-11T08:36:40.311Z,97689.00
2022-09-11T08:39:09.172Z,97695.00
2022-09-11T08:41:53.725Z,97689.00
2022-09-11T08:44:24.689Z,97692.00
2022-09-11T08:47:00.632Z,97698.00
2022-09-11T08:49:43.590Z,97703.00
2022-09-11T08:52:15.426Z,97701.00
2022-09-11T08:54:43.885Z,97700.00
2022-09-11T08:57:28.779Z,97704.00
2022-09-11T09:00:14.725Z,97693.00
2022-09-11T09:03:08.690Z,97703.00
2022-09-11T09:06:21.420Z,97706.00
2022-09-11T09:09:18.509Z,97704.00
2022-09-11T09:12:01.258Z,97699.00
2022-09-11T09:15:05.536Z,97707.00
2022-09-11T09:18:03.458Z,97709.00
2022-09-11T09:20:37.891Z,97703.00
2022-09-11T09:23:20.051Z,97717.00
2022-09-11T09:25:48.241Z,97709.00
2022-09-11T09:28:29.468Z,97717.00
2022-09-11T09:31:00.335Z,97715.00
2022-09-11T09:33:37.400Z,97719.00
2022-09-11T09:36:15.082Z,97728.00
2022-09-11T09:38:43.407Z,97721.00
2022-09-11T09:41:33.842Z,97716.00
2022-09-11T09:44:37.315Z,97727.00
2022-09-11T09:47:05.785Z,97732.00
2022-09-11T09:49:37.560Z,97728.00
2022-09-11T09:52:20.347Z,97738.00
2022-09-11T09:54:57.131Z,97727.00
2022-09-11T09:57:31.087Z,97730.00
2022-09-11T10:00:26.011Z,97732.00
2022-09-11T10:02:55.263Z,97733.00
2022-09-11T10:05:31.372Z,97726.00
2022-09-11T10:08:05.134Z,97724.00
2022-09-11T10:10:41.283Z,97731.00
2022-09-11T10:13:21.494Z,97734.00
2022-09-11T10:15:50.150Z,97724.00
2022-09-11T10:18:32.737Z,97727.00
2022-09-11T10:21:11.847Z,97729.00
2022-09-11T10:23:59.972Z,97735.00
2022-09-11T10:26:34.376Z,97739.00
2022-09-11T10:29:29.891Z,97732.00
2022-09-11T10:32:04.067Z,97729.00
2022-09-11T10:34:40.601Z,97726.00
2022-09-11T10:37:13.909Z,97723.00
2022-09-11T10:39:46.904Z,97729.00
2022-09-11T10:42:22.428Z,97726.00
2022-09-11T10:44:52.723Z,97736.00
2022-09-11T10:47:26.221Z,97726.00
2022-09-11T10:50:18.593Z,97737.00
2022-09-11T10:53:18.751Z,97732.00
2022-09-11T10:56:07.835Z,97742.00
2022-09-11T10:58:39.228Z,97732.00
2022-09-11T11:01:06.550Z,97742.00
2022-09-11T11:03:33.898Z,97736.00
2022-09-11T11:06:47.140Z,97749.00
2022-09-11T11:09:40.935Z,97752.00
2022-09-11T11:12:27.583Z,97743.00
2022-09-11T11:15:43.443Z,97750.00
2022-09-11T11:18:29.084Z,97744.00
2022-09-11T11:21:31.344Z,97755.00
2022-09-11T11:24:27.696Z,97767.00
2022-09-11T11:27:22.650Z,97762.00
2022-09-11T11:30:24.129Z,97771.00
2022-09-11T11:33:04.259Z,97771.00
2022-09-11T11:35:46.160Z,97777.00
2022-09-11T11:39:02.686Z,97783.00
2022-09-11T11:42:05.653Z,97788.00
2022-09-11T11:44:51.474Z,97775.00
2022-09-11T11:47:26.194Z,97782.00
2022-09-11T11:50:06.107Z,97797.00
2022-09-11T11:52:41.322Z,97785.00
2022-09-11T11:55:28.356Z,97795.00
2022-09-11T11:58:07.001Z,97793.00
2022-09-11T12:00:42.594Z,97794.00
2022-09-11T12:03:23.845Z,97790.00
2022-09-11T12:05:51.210Z,97793.00
2022-09-11T12:08:18.397Z,97790.00
2022-09-11T12:11:04.416Z,97791.00
2022-09-11T12:13:36.515Z,97796.00
2022-09-11T12:16:18.073Z,97800.00
2022-09-11T12:19:08.303Z,97809.00
2022-09-11T12:21:39.968Z,97806.00
2022-09-11T12:24:07.056Z,97810.00
2022-09-11T12:26:34.314Z,97817.00
2022-09-11T12:29:14.641Z,97807.00
2022-09-11T12:31:50.859Z,97806.00
2022-09-11T12:34:25.708Z,97807.00
2022-09-11T12:36:56.041Z,97811.00
2022-09-11T12:39:39.906Z,97811.00
2022-09-11T12:42:42.152Z,97804.00
2022-09-11T12:45:38.617Z,97810.00
2022-09-11T12:48:18.461Z,97802.00
2022-09-11T12:50:52.572Z,97809.00
2022-09-11T12:53:29.194Z,97800.00
2022-09-11T12:56:07.699Z,97799.00
2022-09-11T12:58:40.039Z,97802.00
2022-09-11T13:01:20.783Z,97805.00
2022-09-11T13:03:54.221Z,97801.00
2022-09-11T13:06:23.219Z,97806.00
2022-09-11T13:08:59.934Z,97802.00
2022-09-11T13:11:51.730Z,97806.00
2022-09-11T13:14:31.066Z,97797.00
2022-09-11T13:17:03.756Z,97797.00
2022-09-11T13:19:37.525Z,97796.00
2022-09-11T13:22:27.747Z,97798.00
2022-09-11T13:25:16.569Z,97807.00
2022-09-11T13:27:54.749Z,97794.00
2022-09-11T13:30:24.587Z,97806.00
2022-09-11T13:33:08.380Z,97805.00
2022-09-11T13:35:40.358Z,97808.00
2022-09-11T13:38:15.150Z,97804.00
2022-09-11T13:40:51.211Z,97800.00
2022-09-11T13:43:32.357Z,97792.00
2022-09-11T13:46:26.630Z,97797.00
2022-09-11T13:49:13.771Z,97798.00
2022-09-11T13:51:47.611Z,97799.00
2022-09-11T13:54:30.399Z,97801.00
2022-09-11T13:56:57.504Z,97794.00
2022-09-11T13:59:44.894Z,97796.00
2022-09-11T14:02:35.348Z,97802.00
2022-09-11T14:05:12.207Z,97801.00
2022-09-11T14:08:21.582Z,97803.00
2022-09-11T14:10:56.640Z,97806.00
2022-09-11T14:13:35.950Z,97802.00
2022-09-11T14:16:15.266Z,97805.00
2022-09-11T14:19:08.700Z,97805.00
2022-09-11T14:21:45.792Z,97794.00
2022-09-11T14:24:35.054Z,97800.00
2022-09-11T14:27:06.450Z,97799.00
2022-09-11T14:29:38.390Z,97806.00
2022-09-11T14:32:37.046Z,97794.00
2022-09-11T14:35:10.465Z,97796.00
2022-09-11T14:37:45.726Z,97792.00
2022-09-11T14:40:19.468Z,97796.00
2022-09-11T14:42:47.435Z,97799.00
2022-09-11T14:45:25.869Z,97796.00
2022-09-11T14:47:53.576Z,97804.00
2022-09-11T14:50:21.322Z,97795.00
2022-09-11T14:52:48.441Z,97788.00
2022-09-11T14:55:18.220Z,97788.00
2022-09-11T14:57:46.877Z,97793.00
2022-09-11T15:00:16.730Z,97788.00
2022-09-11T15:02:44.056Z,97791.00
2022-09-11T15:05:17.554Z,97793.00
2022-09-11T15:07:45.636Z,97791.00
2022-09-11T15:10:14.007Z,97795.00
2022-09-11T15:12:41.389Z,97790.00
2022-09-11T15:15:09.386Z,97795.00
2022-09-11T15:17:36.859Z,97790.00
2022-09-11T15:20:09.231Z,97794.00
2022-09-11T15:22:38.601Z,97792.00
2022-09-11T15:25:07.004Z,97791.00
2022-09-11T15:27:34.763Z,97790.00
2022-09-11T15:30:01.975Z,97789.00
2022-09-11T15:32:29.733Z,97792.00
2022-09-11T15:34:57.020Z,97790.00
2022-09-11T15:37:25.589Z,97797.00
2022-09-11T15:39:52.908Z,97790.00
2022-09-11T15:42:20.116Z,97792.00
2022-09-11T15:44:47.966Z,97789.00
2022-09-11T15:47:15.137Z,97792.00
2022-09-11T15:49:47.960Z,97795.00
2022-09-11T15:52:15.513Z,97799.00
2022-09-11T15:54:42.946Z,97797.00
2022-09-11T15:57:10.865Z,97794.00
2022-09-11T15:59:39.822Z,97789.00
2022-09-11T16:02:09.210Z,97797.00
2022-09-11T16:04:36.615Z,97806.00
2022-09-11T16:07:04.465Z,97802.00
2022-09-11T16:09:33.056Z,97810.00
2022-09-11T16:12:01.975Z,97799.00
2022-09-11T16:14:34.909Z,97796.00
2022-09-11T16:17:05.484Z,97807.00
2022-09-11T16:19:33.626Z,97808.00
2022-09-11T16:22:03.537Z,97813.00
2022-09-11T16:24:37.602Z,97819.00
2022-09-11T16:27:07.634Z,97813.00
2022-09-11T16:30:05.498Z,97819.00
2022-09-11T16:32:29.248Z,97824.00
2022-09-11T16:34:57.914Z,97816.00
2022-09-11T16:37:26.082Z,97815.00
2022-09-11T16:39:53.436Z,97825.00
2022-09-11T16:42:21.366Z,97819.00
2022-09-11T16:44:49.970Z,97811.00
2022-09-11T16:47:17.961Z,97812.00
2022-09-11T16:50:05.954Z,97818.00
2022-09-11T16:52:32.940Z,97816.00
2022-09-11T16:55:00.259Z,97817.00
2022-09-11T16:57:30.031Z,97817.00
2022-09-11T16:59:57.211Z,97810.00
2022-09-11T17:02:24.278Z,97814.00
2022-09-11T17:04:51.482Z,97818.00
2022-09-11T17:07:19.047Z,97815.00
2022-09-11T17:09:46.241Z,97813.00
2022-09-11T17:12:13.522Z,97804.00
2022-09-11T17:14:40.616Z,97804.00
2022-09-11T17:17:07.699Z,97801.00
2022-09-11T17:19:35.011Z,97800.00
2022-09-11T17:22:03.941Z,97803.00
2022-09-11T17:24:32.359Z,97806.00
2022-09-11T17:26:59.576Z,97799.00
2022-09-11T17:29:26.796Z,97785.00
2022-09-11T17:32:16.772Z,97790.00
2022-09-11T17:34:42.529Z,97799.00
2022-09-11T17:37:10.184Z,97803.00
2022-09-11T17:39:37.505Z,97810.00
2022-09-11T17:42:11.060Z,97802.00
2022-09-11T17:44:41.568Z,97821.00
2022-09-11T17:47:09.490Z,97827.00
2022-09-11T17:49:36.644Z,97832.00
2022-09-11T17:52:03.837Z,97844.00
2022-09-11T17:54:31.213Z,97847.00
2022-09-11T17:56:58.666Z,97835.00
2022-09-11T17:59:25.961Z,97847.00
2022-09-11T18:01:53.468Z,97854.00
2022-09-11T18:04:22.616Z,97855.00
2022-09-11T18:06:51.679Z,97850.00
2022-09-11T18:09:19.964Z,97853.00
2022-09-11T18:11:50.467Z,97847.00
2022-09-11T18:14:18.948Z,97852.00
2022-09-11T18:16:48.028Z,97859.00
2022-09-11T18:19:20.431Z,97867.00
2022-09-11T18:21:50.506Z,97865.00
2022-09-11T18:24:20.479Z,97867.00
2022-09-11T18:26:58.583Z,97872.00
2022-09-11T18:29:29.982Z,97877.00
2022-09-11T18:31:58.463Z,97870.00
2022-09-11T18:34:28.287Z,97867.00
2022-09-11T18:36:55.633Z,97871.00
2022-09-11T18:39:23.067Z,97870.00
2022-09-11T18:41:52.759Z,97869.00
2022-09-11T18:44:22.885Z,97866.00
2022-09-11T18:46:54.567Z,97875.00
2022-09-11T18:49:22.772Z,97869.00
2022-09-11T18:51:50.839Z,97874.00
2022-09-11T18:54:23.720Z,97867.00
2022-09-11T18:56:51.341Z,97876.00
2022-09-11T18:59:20.218Z,97879.00
2022-09-11T19:01:47.687Z,97875.00
2022-09-11T19:04:16.407Z,97879.00
2022-09-11T19:06:45.421Z,97879.00
2022-09-11T19:09:14.840Z,97878.00
2022-09-11T19:11:42.404Z,97881.00
2022-09-11T19:14:12.309Z,97883.00
2022-09-11T19:16:40.303Z,97884.00
2022-09-11T19:19:08.615Z,97879.00
2022-09-11T19:21:38.447Z,97886.00
2022-09-11T19:24:06.913Z,97880.00
2022-09-11T19:26:40.679Z,97881.00
2022-09-11T19:29:09.011Z,97884.00
2022-09-11T19:31:39.210Z,97886.00
2022-09-11T19:34:09.559Z,97881.00
2022-09-11T19:36:36.871Z,97885.00
2022-09-11T19:39:05.721Z,97881.00
2022-09-11T19:41:38.129Z,97883.00
2022-09-11T19:44:08.456Z,97882.00
2022-09-11T19:46:38.104Z,97879.00
2022-09-11T19:49:07.239Z,97884.00
2022-09-11T19:51:40.988Z,97876.00
2022-09-11T19:54:09.500Z,97872.00
2022-09-11T19:56:38.001Z,97885.00
2022-09-11T19:59:06.997Z,97882.00
2022-09-11T20:01:34.712Z,97883.00
2022-09-11T20:04:02.145Z,97886.00
2022-09-11T20:06:33.107Z,97883.00
2022-09-11T20:11:49.071Z,97880.00
2022-09-11T20:14:16.549Z,97887.00
2022-09-11T20:16:44.220Z,97890.00
2022-09-11T20:19:11.688Z,97896.00
2022-09-11T20:21:38.947Z,97891.00
2022-09-11T20:24:07.434Z,97898.00
2022-09-11T20:26:35.747Z,97897.00
2022-09-11T20:29:10.863Z,97899.00
2022-09-11T20:31:46.786Z,97893.00
2022-09-11T20:34:17.886Z,97901.00
2022-09-11T20:36:45.628Z,97897.00
2022-09-11T20:39:14.182Z,97889.00
2022-09-11T20:41:41.315Z,97896.00
2022-09-11T20:44:08.522Z,97889.00
2022-09-11T20:46:35.835Z,97894.00
2022-09-11T20:49:04.387Z,97886.00
2022-09-11T20:51:32.695Z,97886.00
2022-09-11T20:54:00.560Z,97881.00
2022-09-11T20:56:28.804Z,97888.00
2022-09-11T20:58:56.745Z,97881.00
2022-09-11T21:01:26.693Z,97881.00
2022-09-11T21:03:56.737Z,97873.00
2022-09-11T21:06:29.144Z,97880.00
2022-09-11T21:09:00.307Z,97873.00
2022-09-11T21:11:30.251Z,97873.00
2022-09-11T21:13:58.238Z,97877.00
2022-09-11T21:16:25.609Z,97878.00
2022-09-11T21:18:59.297Z,97886.00
2022-09-11T21:21:28.998Z,97887.00
2022-09-11T21:24:03.530Z,97878.00
2022-09-11T21:26:32.807Z,97886.00
2022-09-11T21:29:04.036Z,97886.00
2022-09-11T21:31:31.480Z,97887.00
2022-09-11T21:33:59.161Z,97880.00
2022-09-11T21:36:26.925Z,97893.00
2022-09-11T21:38:54.307Z,97888.00
2022-09-11T21:41:21.465Z,97887.00
2022-09-11T21:43:48.760Z,97884.00
2022-09-11T21:46:15.907Z,97883.00
2022-09-11T21:48:43.147Z,97889.00
2022-09-11T21:51:16.577Z,97886.00
2022-09-11T21:53:46.419Z,97886.00
2022-09-11T21:56:26.618Z,97889.00
2022-09-11T21:58:55.192Z,97886.00
2022-09-11T22:01:25.259Z,97892.00
2022-09-11T22:03:54.019Z,97876.00
2022-09-11T22:06:24.697Z,97877.00
2022-09-11T22:08:53.563Z,97882.00
2022-09-11T22:11:21.106Z,97879.00
2022-09-11T22:13:48.760Z,97883.00
2022-09-11T22:16:18.881Z,97892.00
2022-09-11T22:18:53.495Z,97890.00
2022-09-11T22:21:20.698Z,97894.00
2022-09-11T22:23:47.919Z,97893.00
2022-09-11T22:26:18.960Z,97896.00
2022-09-11T22:28:46.742Z,97894.00
2022-09-11T22:31:24.037Z,97882.00
2022-09-11T22:33:52.964Z,97883.00
2022-09-11T22:36:30.611Z,97886.00
2022-09-11T22:38:59.110Z,97888.00
2022-09-11T22:41:27.302Z,97885.00
2022-09-11T22:43:54.328Z,97879.00
2022-09-11T22:46:22.329Z,97885.00
2022-09-11T22:48:50.117Z,97885.00
2022-09-11T22:51:17.545Z,97876.00
2022-09-11T22:53:45.133Z,97882.00
2022-09-11T22:56:13.974Z,97884.00
2022-09-11T22:58:41.459Z,97878.00
2022-09-11T23:01:11.597Z,97883.00
2022-09-11T23:03:39.152Z,97880.00
2022-09-11T23:06:44.982Z,97872.00
2022-09-11T23:09:16.958Z,97876.00
2022-09-11T23:11:45.698Z,97872.00
2022-09-11T23:14:14.662Z,97876.00
2022-09-11T23:16:42.459Z,97874.00
2022-09-11T23:19:14.289Z,97878.00
2022-09-11T23:21:42.806Z,97873.00
2022-09-11T23:24:14.666Z,97874.00
2022-09-11T23:26:41.795Z,97875.00
2022-09-11T23:29:09.143Z,97867.00
2022-09-11T23:31:36.636Z,97866.00
2022-09-11T23:34:08.592Z,97864.00
2022-09-11T23:36:36.489Z,97866.00
2022-09-11T23:39:04.439Z,97860.00
2022-09-11T23:41:34.554Z,97858.00
2022-09-11T23:44:02.465Z,97858.00
2022-09-11T23:46:29.490Z,97861.00
2022-09-11T23:48:56.811Z,97864.00
2022-09-11T23:51:24.077Z,97858.00
2022-09-11T23:53:52.020Z,97857.00
2022-09-11T23:56:21.008Z,97850.00
2022-09-11T23:58:48.702Z,97848.00
